Bluefin — WDE9397 — position and weather

sailwx.info

Track history (hours):
 
Tides and Currents Weather Stations Pressure Air Temp Water Temp Dewpoint Dewpoint Depression Visibility Wind Speed Wind Dir Waves Ship Positions

Bluefin

Owner: Penn Maritime Inc., SEATTLE, WA. More information available from US FCC via Universal Licensing System and Coast Guard Vessel Documentation Center.

Last reported at 2015-Jul-14 17:31 UTC. Time now 2015-Aug-03 13:08 UTC.
Position N 40°39' W 074°07'.
Warning: this ship's position is 19 days out of date.

Length 166 m; draft 7.3 m.

Type: Towing. MMSI: 367416750.

Date/timePositionNaut miles runAvg speedWind from/ knotsBaromVisibWave heightAir tempDewpointWater temp
2015-Jul-14 17:31N 40°39' W 074°07'2 2.2
2015-Jul-14 16:33N 40°39' W 074°10'0 0.0
2015-Jul-14 15:33N 40°39' W 074°10'0 0.0
2015-Jul-14 14:33N 40°39' W 074°10'0 0.0
2015-Jul-14 13:33N 40°39' W 074°10'0 0.0
2015-Jul-14 12:33N 40°39' W 074°10'0 0.0
2015-Jul-14 11:32N 40°39' W 074°10'0 0.0
2015-Jul-14 10:33N 40°39' W 074°10'0 0.0
2015-Jul-14 09:33N 40°39' W 074°10'0 0.0
2015-Jul-14 08:33N 40°39' W 074°10'0 0.0
2015-Jul-14 07:33N 40°39' W 074°10'0 0.0
2015-Jul-14 06:32N 40°39' W 074°10'0 0.1
2015-Jul-14 05:33N 40°39' W 074°10'0 0.0
2015-Jul-14 04:33N 40°39' W 074°10'0 0.0
2015-Jul-14 03:33N 40°39' W 074°10'0 0.0
2015-Jul-14 02:33N 40°39' W 074°10'0 0.0
2015-Jul-14 01:33N 40°39' W 074°10'0 0.0
2015-Jul-14 00:33N 40°39' W 074°10'0 0.0
2015-Jul-13 23:33N 40°39' W 074°10'0 0.0
2015-Jul-13 22:33N 40°39' W 074°10'0 0.0
2015-Jul-13 21:33N 40°39' W 074°10'0 0.0
2015-Jul-13 20:33N 40°39' W 074°10'0 0.0
2015-Jul-13 19:33N 40°39' W 074°10'0 0.0
2015-Jul-13 18:33N 40°39' W 074°10'0 0.0
2015-Jul-13 17:33N 40°39' W 074°10'0 0.0
2015-Jul-13 16:33N 40°39' W 074°10'0 0.0
2015-Jul-13 15:33N 40°39' W 074°10'0 0.0
2015-Jul-13 14:33N 40°39' W 074°10'0 0.0
2015-Jul-13 13:33N 40°39' W 074°10'0 0.0
2015-Jul-13 12:33N 40°39' W 074°10'0 0.0
2015-Jul-13 11:33N 40°39' W 074°10'0 0.0
2015-Jul-13 10:33N 40°39' W 074°10'0 0.0
2015-Jul-13 09:33N 40°39' W 074°10'0 0.0
2015-Jul-13 08:33N 40°39' W 074°10'0 0.0
2015-Jul-13 07:33N 40°39' W 074°10'0 0.0
2015-Jul-13 06:33N 40°39' W 074°10'0 0.0
2015-Jul-13 05:33N 40°39' W 074°10'0 0.0
2015-Jul-13 04:33N 40°39' W 074°10'0 0.0
2015-Jul-13 03:33N 40°39' W 074°10'0 0.0
2015-Jul-13 02:33N 40°39' W 074°10'0 0.0
2015-Jul-13 01:33N 40°39' W 074°10'0 0.0
2015-Jul-13 00:33N 40°39' W 074°10'0 0.0
2015-Jul-12 23:33N 40°39' W 074°10'0 0.0
2015-Jul-12 22:33N 40°39' W 074°10'0 0.0
2015-Jul-12 21:33N 40°39' W 074°10'0 0.0
2015-Jul-12 20:33N 40°39' W 074°10'0 0.0
2015-Jul-12 19:33N 40°39' W 074°10'0 0.0
2015-Jul-12 18:33N 40°39' W 074°10'0 0.0
2015-Jul-12 17:33N 40°39' W 074°10'0 0.0
2015-Jul-12 16:33N 40°39' W 074°10'2 2.1
2015-Jul-12 15:31N 40°39' W 074°07'0 0.0
2015-Jul-12 14:31N 40°39' W 074°07'0 0.0
2015-Jul-12 13:33N 40°39' W 074°07'0 0.0
2015-Jul-12 12:31N 40°39' W 074°07'0 0.0
2015-Jul-12 11:31N 40°39' W 074°07'0 0.0
2015-Jul-12 10:31N 40°39' W 074°07'1 0.5
2015-Jul-12 09:34N 40°39' W 074°06'3 3.3
2015-Jul-12 08:34N 40°40' W 074°02'0 0.1
2015-Jul-12 07:34N 40°40' W 074°02'0 0.1
2015-Jul-12 06:33N 40°40' W 074°02'0 0.0
2015-Jul-12 05:33N 40°40' W 074°02'6 6.4
2015-Jul-12 04:34N 40°39' W 074°10'7 7.4
2015-Jul-12 03:33N 40°32' W 074°15'1 0.8
2015-Jul-12 02:33N 40°31' W 074°15'0 0.0
2015-Jul-11 14:26N 40°31' W 074°15'1 0.6
2015-Jul-11 13:06N 40°32' W 074°15'4 8.0
2015-Jul-11 12:33N 40°36' W 074°12'7 7.0
2015-Jul-11 11:34N 40°39' W 074°04'1010.1
2015-Jul-11 10:34N 40°47' W 073°55'2 1.6
2015-Jul-11 09:34N 40°48' W 073°54'0 0.0
2015-Jul-11 08:33N 40°48' W 073°54'0 0.0
2015-Jul-11 07:34N 40°48' W 073°54'0 0.0
2015-Jul-11 06:34N 40°48' W 073°54'0 0.0
2015-Jul-11 05:33N 40°48' W 073°54'0 0.0
2015-Jul-11 04:33N 40°48' W 073°54'0 0.0
2015-Jul-11 03:34N 40°48' W 073°54'0 0.0
2015-Jul-11 02:33N 40°48' W 073°54'0 0.0
2015-Jul-11 01:33N 40°48' W 073°54'0 0.0
2015-Jul-11 00:33N 40°48' W 073°54'0 0.0
2015-Jul-10 23:32N 40°48' W 073°54'0 0.0
2015-Jul-10 22:34N 40°48' W 073°54'0 0.0
2015-Jul-10 21:34N 40°48' W 073°54'0 0.0
2015-Jul-10 20:33N 40°48' W 073°54'0 0.0
2015-Jul-10 19:33N 40°48' W 073°54'0 0.0
2015-Jul-10 18:34N 40°48' W 073°54'0 0.0
2015-Jul-10 17:33N 40°48' W 073°54'0 0.0
2015-Jul-10 16:34N 40°48' W 073°54'5 4.7
2015-Jul-10 15:34N 40°45' W 073°58'6 6.1
2015-Jul-10 14:34N 40°40' W 074°03'8 7.5
2015-Jul-10 13:33N 40°32' W 074°01'8 7.7
2015-Jul-10 12:33N 40°28' W 073°53'7 7.1
2015-Jul-10 11:34N 40°21' W 073°53'21 6.9
2015-Jul-10 08:30N 39°60' W 073°56'7 7.1
2015-Jul-10 07:33N 39°53' W 073°57'7 7.1
2015-Jul-10 06:33N 39°46' W 073°58'8 8.2
2015-Jul-10 05:32N 39°38' W 074°02'1210.0
2015-Jul-10 04:19N 39°27' W 074°09'8 9.9
2015-Jul-10 03:33N 39°21' W 074°15'10 9.8
2015-Jul-10 02:33N 39°14' W 074°23'14 9.8
2015-Jul-10 01:07N 39°03' W 074°36'5 9.6
2015-Jul-10 00:34N 38°60' W 074°41'10 9.6
2015-Jul-09 23:29N 38°52' W 074°49'9 9.8
2015-Jul-09 22:33N 38°48' W 074°59'10 9.6
2015-Jul-09 21:34N 38°56' W 075°06'10 9.5
2015-Jul-09 20:33N 39°05' W 075°11'8 8.3
2015-Jul-09 19:33N 39°12' W 075°17'8 7.7
2015-Jul-09 18:33N 39°18' W 075°23'9 9.0
2015-Jul-09 17:34N 39°25' W 075°31'1010.0
2015-Jul-09 16:33N 39°35' W 075°33'1010.4
2015-Jul-09 15:34N 39°45' W 075°30'1110.6
2015-Jul-09 14:34N 39°51' W 075°19'4 3.6
2015-Jul-09 13:31N 39°51' W 075°14'0 0.0
2015-Jul-09 12:31N 39°51' W 075°14'0 0.0
2015-Jul-09 11:31N 39°51' W 075°14'0 0.0
2015-Jul-09 10:31N 39°51' W 075°14'0 0.0
2015-Jul-09 09:31N 39°51' W 075°14'0 0.0
2015-Jul-09 08:31N 39°51' W 075°14'0 0.0
2015-Jul-09 07:31N 39°51' W 075°14'0 0.0
2015-Jul-09 06:31N 39°51' W 075°14'0 0.0
2015-Jul-09 05:31N 39°51' W 075°14'0 0.0
2015-Jul-09 04:31N 39°51' W 075°14'0 0.0
2015-Jul-09 03:31N 39°51' W 075°14'0 0.0
2015-Jul-09 02:31N 39°51' W 075°14'0 0.0
2015-Jul-09 01:31N 39°51' W 075°14'0 0.0
2015-Jul-09 00:31N 39°51' W 075°14'0 0.0
2015-Jul-08 23:31N 39°51' W 075°14'0 0.0
2015-Jul-08 22:31N 39°51' W 075°14'0 0.0
2015-Jul-08 21:31N 39°51' W 075°14'0 0.0
2015-Jul-08 20:31N 39°51' W 075°14'0 0.0
2015-Jul-08 19:31N 39°51' W 075°14'0 0.0
2015-Jul-08 18:31N 39°51' W 075°14'0 0.0
2015-Jul-08 17:31N 39°51' W 075°14'0 0.0
2015-Jul-08 16:31N 39°51' W 075°14'0 0.0
2015-Jul-08 15:32N 39°51' W 075°14'1 0.6
2015-Jul-08 14:33N 39°51' W 075°14'6 6.0
2015-Jul-08 13:33N 39°50' W 075°22'7 7.2
2015-Jul-08 12:33N 39°45' W 075°29'10 9.6
2015-Jul-08 11:33N 39°36' W 075°34'10 9.6
2015-Jul-08 10:33N 39°27' W 075°33'1110.8
2015-Jul-08 09:33N 39°19' W 075°24'1110.9
2015-Jul-08 08:33N 39°10' W 075°16'1110.8
2015-Jul-08 07:33N 39°01' W 075°09'1111.1
2015-Jul-08 06:33N 38°50' W 075°03'10 9.9
2015-Jul-08 05:33N 38°50' W 074°50'1110.4
2015-Jul-08 04:30N 38°59' W 074°42'1010.3
2015-Jul-08 03:33N 39°06' W 074°32'1010.2
2015-Jul-08 02:33N 39°13' W 074°24'1010.1
2015-Jul-08 01:33N 39°21' W 074°15'1010.1
2015-Jul-08 00:33N 39°30' W 074°08'1010.3
2015-Jul-07 23:33N 39°39' W 074°02'1510.0
2015-Jul-07 22:05N 39°53' W 073°57'610.1
2015-Jul-07 21:32N 39°59' W 073°56'1010.1
2015-Jul-07 20:32N 40°09' W 073°54'1010.6
2015-Jul-07 19:33N 40°19' W 073°54'1010.0
2015-Jul-07 18:33N 40°28' W 073°58'10 9.8
2015-Jul-07 17:33N 40°30' W 074°11'5 2.4
2015-Jul-07 15:29N 40°31' W 074°18'0 0.0
2015-Jul-07 14:33N 40°31' W 074°18'0 0.0
2015-Jul-07 13:11N 40°31' W 074°18'0 0.0
2015-Jul-07 07:32N 40°31' W 074°18'0 0.0
2015-Jul-07 04:27N 40°31' W 074°18'0 0.0
2015-Jul-07 03:13N 40°31' W 074°18'0 0.0
2015-Jul-07 00:28N 40°31' W 074°18'1 0.1
2015-Jul-06 16:22N 40°30' W 074°17'4 5.2
2015-Jul-06 15:33N 40°33' W 074°14'6 6.5
2015-Jul-06 14:33N 40°39' W 074°09'2 2.2
2015-Jul-06 13:33N 40°39' W 074°06'0 0.1
2015-Jul-06 12:33N 40°39' W 074°06'0 0.0
2015-Jul-06 11:33N 40°39' W 074°06'0 0.0
2015-Jul-06 10:33N 40°39' W 074°06'1 0.8
2015-Jul-06 09:33N 40°39' W 074°07'0 0.0
2015-Jul-06 08:33N 40°39' W 074°07'0 0.0
2015-Jul-06 07:33N 40°39' W 074°07'0 0.0
2015-Jul-06 06:33N 40°39' W 074°07'0 0.0
2015-Jul-06 05:33N 40°39' W 074°07'0 0.0
2015-Jul-06 04:33N 40°39' W 074°07'1 0.8
2015-Jul-06 03:34N 40°39' W 074°06'3 2.9
2015-Jul-06 02:33N 40°39' W 074°10'0 0.0
2015-Jul-06 01:33N 40°39' W 074°10'0 0.0
2015-Jul-06 00:33N 40°39' W 074°10'3 2.9
2015-Jul-05 23:33N 40°39' W 074°06'0 0.2
2015-Jul-05 22:33N 40°39' W 074°06'2 2.4
2015-Jul-05 21:33N 40°39' W 074°03'0 0.0
2015-Jul-05 20:33N 40°39' W 074°03'0 0.0
2015-Jul-05 19:33N 40°39' W 074°03'0 0.1
2015-Jul-05 18:33N 40°39' W 074°03'0 0.1
2015-Jul-05 17:33N 40°40' W 074°03'0 0.0
2015-Jul-05 16:33N 40°40' W 074°03'0 0.0
2015-Jul-05 15:33N 40°40' W 074°03'0 0.1
2015-Jul-05 14:33N 40°40' W 074°03'0 0.0
2015-Jul-05 13:33N 40°40' W 074°03'0 0.1
2015-Jul-05 12:33N 40°39' W 074°03'0 0.0
2015-Jul-05 11:33N 40°39' W 074°03'0 0.0
2015-Jul-05 10:33N 40°39' W 074°03'0 0.0
2015-Jul-05 09:33N 40°39' W 074°03'0 0.0
2015-Jul-05 08:33N 40°39' W 074°03'0 0.0
2015-Jul-05 07:33N 40°39' W 074°03'0 0.0
2015-Jul-05 06:33N 40°39' W 074°03'0 0.2
2015-Jul-05 05:33N 40°40' W 074°03'3 3.1
2015-Jul-05 04:33N 40°36' W 074°03'36 8.8
2015-Jul-05 00:28N 40°01' W 073°56'9 9.6
2015-Jul-04 23:33N 39°52' W 073°57'9 9.3
2015-Jul-04 22:33N 39°43' W 073°59'9 9.1
2015-Jul-04 21:33N 39°35' W 074°05'  
Track history (hours):
 
Tides and Currents Weather Stations Pressure Air Temp Water Temp Dewpoint Dewpoint Depression Visibility Wind Speed Wind Dir Waves Ship Positions

Bluefin

Owner: Penn Maritime Inc., SEATTLE, WA. More information available from US FCC via Universal Licensing System and Coast Guard Vessel Documentation Center.

Last reported at 2015-Jul-14 17:31 UTC. Time now 2015-Aug-03 13:08 UTC.
Position N 40°39' W 074°07'.
Warning: this ship's position is 19 days out of date.

Length 166 m; draft 7.3 m.

Type: Towing. MMSI: 367416750.

Date/timePositionNaut miles runAvg speedWind from/ knotsBaromVisibWave heightAir tempDewpointWater temp
2015-Jul-14 17:31N 40°39' W 074°07'2 2.2
2015-Jul-14 16:33N 40°39' W 074°10'0 0.0
2015-Jul-14 15:33N 40°39' W 074°10'0 0.0
2015-Jul-14 14:33N 40°39' W 074°10'0 0.0
2015-Jul-14 13:33N 40°39' W 074°10'0 0.0
2015-Jul-14 12:33N 40°39' W 074°10'0 0.0
2015-Jul-14 11:32N 40°39' W 074°10'0 0.0
2015-Jul-14 10:33N 40°39' W 074°10'0 0.0
2015-Jul-14 09:33N 40°39' W 074°10'0 0.0
2015-Jul-14 08:33N 40°39' W 074°10'0 0.0
2015-Jul-14 07:33N 40°39' W 074°10'0 0.0
2015-Jul-14 06:32N 40°39' W 074°10'0 0.1
2015-Jul-14 05:33N 40°39' W 074°10'0 0.0
2015-Jul-14 04:33N 40°39' W 074°10'0 0.0
2015-Jul-14 03:33N 40°39' W 074°10'0 0.0
2015-Jul-14 02:33N 40°39' W 074°10'0 0.0
2015-Jul-14 01:33N 40°39' W 074°10'0 0.0
2015-Jul-14 00:33N 40°39' W 074°10'0 0.0
2015-Jul-13 23:33N 40°39' W 074°10'0 0.0
2015-Jul-13 22:33N 40°39' W 074°10'0 0.0
2015-Jul-13 21:33N 40°39' W 074°10'0 0.0
2015-Jul-13 20:33N 40°39' W 074°10'0 0.0
2015-Jul-13 19:33N 40°39' W 074°10'0 0.0
2015-Jul-13 18:33N 40°39' W 074°10'0 0.0
2015-Jul-13 17:33N 40°39' W 074°10'0 0.0
2015-Jul-13 16:33N 40°39' W 074°10'0 0.0
2015-Jul-13 15:33N 40°39' W 074°10'0 0.0
2015-Jul-13 14:33N 40°39' W 074°10'0 0.0
2015-Jul-13 13:33N 40°39' W 074°10'0 0.0
2015-Jul-13 12:33N 40°39' W 074°10'0 0.0
2015-Jul-13 11:33N 40°39' W 074°10'0 0.0
2015-Jul-13 10:33N 40°39' W 074°10'0 0.0
2015-Jul-13 09:33N 40°39' W 074°10'0 0.0
2015-Jul-13 08:33N 40°39' W 074°10'0 0.0
2015-Jul-13 07:33N 40°39' W 074°10'0 0.0
2015-Jul-13 06:33N 40°39' W 074°10'0 0.0
2015-Jul-13 05:33N 40°39' W 074°10'0 0.0
2015-Jul-13 04:33N 40°39' W 074°10'0 0.0
2015-Jul-13 03:33N 40°39' W 074°10'0 0.0
2015-Jul-13 02:33N 40°39' W 074°10'0 0.0
2015-Jul-13 01:33N 40°39' W 074°10'0 0.0
2015-Jul-13 00:33N 40°39' W 074°10'0 0.0
2015-Jul-12 23:33N 40°39' W 074°10'0 0.0
2015-Jul-12 22:33N 40°39' W 074°10'0 0.0
2015-Jul-12 21:33N 40°39' W 074°10'0 0.0
2015-Jul-12 20:33N 40°39' W 074°10'0 0.0
2015-Jul-12 19:33N 40°39' W 074°10'0 0.0
2015-Jul-12 18:33N 40°39' W 074°10'0 0.0
2015-Jul-12 17:33N 40°39' W 074°10'0 0.0
2015-Jul-12 16:33N 40°39' W 074°10'2 2.1
2015-Jul-12 15:31N 40°39' W 074°07'0 0.0
2015-Jul-12 14:31N 40°39' W 074°07'0 0.0
2015-Jul-12 13:33N 40°39' W 074°07'0 0.0
2015-Jul-12 12:31N 40°39' W 074°07'0 0.0
2015-Jul-12 11:31N 40°39' W 074°07'0 0.0
2015-Jul-12 10:31N 40°39' W 074°07'1 0.5
2015-Jul-12 09:34N 40°39' W 074°06'3 3.3
2015-Jul-12 08:34N 40°40' W 074°02'0 0.1
2015-Jul-12 07:34N 40°40' W 074°02'0 0.1
2015-Jul-12 06:33N 40°40' W 074°02'0 0.0
2015-Jul-12 05:33N 40°40' W 074°02'6 6.4
2015-Jul-12 04:34N 40°39' W 074°10'7 7.4
2015-Jul-12 03:33N 40°32' W 074°15'1 0.8
2015-Jul-12 02:33N 40°31' W 074°15'0 0.0
2015-Jul-11 14:26N 40°31' W 074°15'1 0.6
2015-Jul-11 13:06N 40°32' W 074°15'4 8.0
2015-Jul-11 12:33N 40°36' W 074°12'7 7.0
2015-Jul-11 11:34N 40°39' W 074°04'1010.1
2015-Jul-11 10:34N 40°47' W 073°55'2 1.6
2015-Jul-11 09:34N 40°48' W 073°54'0 0.0
2015-Jul-11 08:33N 40°48' W 073°54'0 0.0
2015-Jul-11 07:34N 40°48' W 073°54'0 0.0
2015-Jul-11 06:34N 40°48' W 073°54'0 0.0
2015-Jul-11 05:33N 40°48' W 073°54'0 0.0
2015-Jul-11 04:33N 40°48' W 073°54'0 0.0
2015-Jul-11 03:34N 40°48' W 073°54'0 0.0
2015-Jul-11 02:33N 40°48' W 073°54'0 0.0
2015-Jul-11 01:33N 40°48' W 073°54'0 0.0
2015-Jul-11 00:33N 40°48' W 073°54'0 0.0
2015-Jul-10 23:32N 40°48' W 073°54'0 0.0
2015-Jul-10 22:34N 40°48' W 073°54'0 0.0
2015-Jul-10 21:34N 40°48' W 073°54'0 0.0
2015-Jul-10 20:33N 40°48' W 073°54'0 0.0
2015-Jul-10 19:33N 40°48' W 073°54'0 0.0
2015-Jul-10 18:34N 40°48' W 073°54'0 0.0
2015-Jul-10 17:33N 40°48' W 073°54'0 0.0
2015-Jul-10 16:34N 40°48' W 073°54'5 4.7
2015-Jul-10 15:34N 40°45' W 073°58'6 6.1
2015-Jul-10 14:34N 40°40' W 074°03'8 7.5
2015-Jul-10 13:33N 40°32' W 074°01'8 7.7
2015-Jul-10 12:33N 40°28' W 073°53'7 7.1
2015-Jul-10 11:34N 40°21' W 073°53'21 6.9
2015-Jul-10 08:30N 39°60' W 073°56'7 7.1
2015-Jul-10 07:33N 39°53' W 073°57'7 7.1
2015-Jul-10 06:33N 39°46' W 073°58'8 8.2
2015-Jul-10 05:32N 39°38' W 074°02'1210.0
2015-Jul-10 04:19N 39°27' W 074°09'8 9.9
2015-Jul-10 03:33N 39°21' W 074°15'10 9.8
2015-Jul-10 02:33N 39°14' W 074°23'14 9.8
2015-Jul-10 01:07N 39°03' W 074°36'5 9.6
2015-Jul-10 00:34N 38°60' W 074°41'10 9.6
2015-Jul-09 23:29N 38°52' W 074°49'9 9.8
2015-Jul-09 22:33N 38°48' W 074°59'10 9.6
2015-Jul-09 21:34N 38°56' W 075°06'10 9.5
2015-Jul-09 20:33N 39°05' W 075°11'8 8.3
2015-Jul-09 19:33N 39°12' W 075°17'8 7.7
2015-Jul-09 18:33N 39°18' W 075°23'9 9.0
2015-Jul-09 17:34N 39°25' W 075°31'1010.0
2015-Jul-09 16:33N 39°35' W 075°33'1010.4
2015-Jul-09 15:34N 39°45' W 075°30'1110.6
2015-Jul-09 14:34N 39°51' W 075°19'4 3.6
2015-Jul-09 13:31N 39°51' W 075°14'0 0.0
2015-Jul-09 12:31N 39°51' W 075°14'0 0.0
2015-Jul-09 11:31N 39°51' W 075°14'0 0.0
2015-Jul-09 10:31N 39°51' W 075°14'0 0.0
2015-Jul-09 09:31N 39°51' W 075°14'0 0.0
2015-Jul-09 08:31N 39°51' W 075°14'0 0.0
2015-Jul-09 07:31N 39°51' W 075°14'0 0.0
2015-Jul-09 06:31N 39°51' W 075°14'0 0.0
2015-Jul-09 05:31N 39°51' W 075°14'0 0.0
2015-Jul-09 04:31N 39°51' W 075°14'0 0.0
2015-Jul-09 03:31N 39°51' W 075°14'0 0.0
2015-Jul-09 02:31N 39°51' W 075°14'0 0.0
2015-Jul-09 01:31N 39°51' W 075°14'0 0.0
2015-Jul-09 00:31N 39°51' W 075°14'0 0.0
2015-Jul-08 23:31N 39°51' W 075°14'0 0.0
2015-Jul-08 22:31N 39°51' W 075°14'0 0.0
2015-Jul-08 21:31N 39°51' W 075°14'0 0.0
2015-Jul-08 20:31N 39°51' W 075°14'0 0.0
2015-Jul-08 19:31N 39°51' W 075°14'0 0.0
2015-Jul-08 18:31N 39°51' W 075°14'0 0.0
2015-Jul-08 17:31N 39°51' W 075°14'0 0.0
2015-Jul-08 16:31N 39°51' W 075°14'0 0.0
2015-Jul-08 15:32N 39°51' W 075°14'1 0.6
2015-Jul-08 14:33N 39°51' W 075°14'6 6.0
2015-Jul-08 13:33N 39°50' W 075°22'7 7.2
2015-Jul-08 12:33N 39°45' W 075°29'10 9.6
2015-Jul-08 11:33N 39°36' W 075°34'10 9.6
2015-Jul-08 10:33N 39°27' W 075°33'1110.8
2015-Jul-08 09:33N 39°19' W 075°24'1110.9
2015-Jul-08 08:33N 39°10' W 075°16'1110.8
2015-Jul-08 07:33N 39°01' W 075°09'1111.1
2015-Jul-08 06:33N 38°50' W 075°03'10 9.9
2015-Jul-08 05:33N 38°50' W 074°50'1110.4
2015-Jul-08 04:30N 38°59' W 074°42'1010.3
2015-Jul-08 03:33N 39°06' W 074°32'1010.2
2015-Jul-08 02:33N 39°13' W 074°24'1010.1
2015-Jul-08 01:33N 39°21' W 074°15'1010.1
2015-Jul-08 00:33N 39°30' W 074°08'1010.3
2015-Jul-07 23:33N 39°39' W 074°02'1510.0
2015-Jul-07 22:05N 39°53' W 073°57'610.1
2015-Jul-07 21:32N 39°59' W 073°56'1010.1
2015-Jul-07 20:32N 40°09' W 073°54'1010.6
2015-Jul-07 19:33N 40°19' W 073°54'1010.0
2015-Jul-07 18:33N 40°28' W 073°58'10 9.8
2015-Jul-07 17:33N 40°30' W 074°11'5 2.4
2015-Jul-07 15:29N 40°31' W 074°18'0 0.0
2015-Jul-07 14:33N 40°31' W 074°18'0 0.0
2015-Jul-07 13:11N 40°31' W 074°18'0 0.0
2015-Jul-07 07:32N 40°31' W 074°18'0 0.0
2015-Jul-07 04:27N 40°31' W 074°18'0 0.0
2015-Jul-07 03:13N 40°31' W 074°18'0 0.0
2015-Jul-07 00:28N 40°31' W 074°18'1 0.1
2015-Jul-06 16:22N 40°30' W 074°17'4 5.2
2015-Jul-06 15:33N 40°33' W 074°14'6 6.5
2015-Jul-06 14:33N 40°39' W 074°09'2 2.2
2015-Jul-06 13:33N 40°39' W 074°06'0 0.1
2015-Jul-06 12:33N 40°39' W 074°06'0 0.0
2015-Jul-06 11:33N 40°39' W 074°06'0 0.0
2015-Jul-06 10:33N 40°39' W 074°06'1 0.8
2015-Jul-06 09:33N 40°39' W 074°07'0 0.0
2015-Jul-06 08:33N 40°39' W 074°07'0 0.0
2015-Jul-06 07:33N 40°39' W 074°07'0 0.0
2015-Jul-06 06:33N 40°39' W 074°07'0 0.0
2015-Jul-06 05:33N 40°39' W 074°07'0 0.0
2015-Jul-06 04:33N 40°39' W 074°07'1 0.8
2015-Jul-06 03:34N 40°39' W 074°06'3 2.9
2015-Jul-06 02:33N 40°39' W 074°10'0 0.0
2015-Jul-06 01:33N 40°39' W 074°10'0 0.0
2015-Jul-06 00:33N 40°39' W 074°10'3 2.9
2015-Jul-05 23:33N 40°39' W 074°06'0 0.2
2015-Jul-05 22:33N 40°39' W 074°06'2 2.4
2015-Jul-05 21:33N 40°39' W 074°03'0 0.0
2015-Jul-05 20:33N 40°39' W 074°03'0 0.0
2015-Jul-05 19:33N 40°39' W 074°03'0 0.1
2015-Jul-05 18:33N 40°39' W 074°03'0 0.1
2015-Jul-05 17:33N 40°40' W 074°03'0 0.0
2015-Jul-05 16:33N 40°40' W 074°03'0 0.0
2015-Jul-05 15:33N 40°40' W 074°03'0 0.1
2015-Jul-05 14:33N 40°40' W 074°03'0 0.0
2015-Jul-05 13:33N 40°40' W 074°03'0 0.1
2015-Jul-05 12:33N 40°39' W 074°03'0 0.0
2015-Jul-05 11:33N 40°39' W 074°03'0 0.0
2015-Jul-05 10:33N 40°39' W 074°03'0 0.0
2015-Jul-05 09:33N 40°39' W 074°03'0 0.0
2015-Jul-05 08:33N 40°39' W 074°03'0 0.0
2015-Jul-05 07:33N 40°39' W 074°03'0 0.0
2015-Jul-05 06:33N 40°39' W 074°03'0 0.2
2015-Jul-05 05:33N 40°40' W 074°03'3 3.1
2015-Jul-05 04:33N 40°36' W 074°03'36 8.8
2015-Jul-05 00:28N 40°01' W 073°56'9 9.6
2015-Jul-04 23:33N 39°52' W 073°57'9 9.3
2015-Jul-04 22:33N 39°43' W 073°59'9 9.1
2015-Jul-04 21:33N 39°35' W 074°05'  

Dump ship's entire track history